sensor_id;sensor_type;location;lat;lon;timestamp;P1;durP1;ratioP1;P2;durP2;ratioP2
24729;SDS011;12832;52.392;13.066;2023-07-02T00:01:45;0.60;;;0.60;;
24729;SDS011;12832;52.392;13.066;2023-07-02T00:04:13;0.40;;;0.40;;
24729;SDS011;12832;52.392;13.066;2023-07-02T00:06:45;0.40;;;0.40;;
24729;SDS011;12832;52.392;13.066;2023-07-02T00:09:12;0.30;;;0.30;;
24729;SDS011;12832;52.392;13.066;2023-07-02T00:11:39;0.40;;;0.40;;
24729;SDS011;12832;52.392;13.066;2023-07-02T00:14:07;0.40;;;0.40;;
24729;SDS011;12832;52.392;13.066;2023-07-02T00:16:35;0.50;;;0.50;;
24729;SDS011;12832;52.392;13.066;2023-07-02T00:19:03;0.40;;;0.40;;
24729;SDS011;12832;52.392;13.066;2023-07-02T00:21:30;0.45;;;0.45;;
24729;SDS011;12832;52.392;13.066;2023-07-02T00:23:59;0.50;;;0.50;;
24729;SDS011;12832;52.392;13.066;2023-07-02T00:26:26;0.50;;;0.50;;
24729;SDS011;12832;52.392;13.066;2023-07-02T00:28:53;0.40;;;0.40;;
24729;SDS011;12832;52.392;13.066;2023-07-02T00:31:20;0.40;;;0.40;;
24729;SDS011;12832;52.392;13.066;2023-07-02T00:33:47;0.40;;;0.40;;
24729;SDS011;12832;52.392;13.066;2023-07-02T00:36:14;0.50;;;0.50;;
24729;SDS011;12832;52.392;13.066;2023-07-02T00:38:41;0.60;;;0.60;;
24729;SDS011;12832;52.392;13.066;2023-07-02T00:41:08;0.50;;;0.50;;
24729;SDS011;12832;52.392;13.066;2023-07-02T00:43:35;0.43;;;0.43;;
24729;SDS011;12832;52.392;13.066;2023-07-02T00:46:01;0.60;;;0.60;;
24729;SDS011;12832;52.392;13.066;2023-07-02T00:48:29;0.50;;;0.50;;
24729;SDS011;12832;52.392;13.066;2023-07-02T00:50:55;0.40;;;0.40;;
24729;SDS011;12832;52.392;13.066;2023-07-02T00:53:22;0.30;;;0.30;;
24729;SDS011;12832;52.392;13.066;2023-07-02T00:55:48;0.40;;;0.40;;
24729;SDS011;12832;52.392;13.066;2023-07-02T00:58:14;0.40;;;0.40;;
24729;SDS011;12832;52.392;13.066;2023-07-02T01:00:44;0.60;;;0.60;;
24729;SDS011;12832;52.392;13.066;2023-07-02T01:03:11;0.38;;;0.38;;
24729;SDS011;12832;52.392;13.066;2023-07-02T01:05:37;0.40;;;0.40;;
24729;SDS011;12832;52.392;13.066;2023-07-02T01:08:04;0.43;;;0.43;;
24729;SDS011;12832;52.392;13.066;2023-07-02T01:10:33;0.40;;;0.40;;
24729;SDS011;12832;52.392;13.066;2023-07-02T01:13:05;0.40;;;0.40;;
24729;SDS011;12832;52.392;13.066;2023-07-02T01:15:38;0.30;;;0.30;;
24729;SDS011;12832;52.392;13.066;2023-07-02T01:18:05;0.43;;;0.43;;
24729;SDS011;12832;52.392;13.066;2023-07-02T01:20:32;0.40;;;0.40;;
24729;SDS011;12832;52.392;13.066;2023-07-02T01:23:00;0.40;;;0.40;;
24729;SDS011;12832;52.392;13.066;2023-07-02T01:25:29;0.47;;;0.47;;
24729;SDS011;12832;52.392;13.066;2023-07-02T01:27:55;0.40;;;0.40;;
24729;SDS011;12832;52.392;13.066;2023-07-02T01:30:24;0.50;;;0.50;;
24729;SDS011;12832;52.392;13.066;2023-07-02T01:32:51;0.40;;;0.40;;
24729;SDS011;12832;52.392;13.066;2023-07-02T01:35:18;0.43;;;0.43;;
24729;SDS011;12832;52.392;13.066;2023-07-02T01:37:44;0.35;;;0.35;;
24729;SDS011;12832;52.392;13.066;2023-07-02T01:40:10;0.50;;;0.50;;
24729;SDS011;12832;52.392;13.066;2023-07-02T01:42:37;0.50;;;0.50;;
24729;SDS011;12832;52.392;13.066;2023-07-02T01:45:04;0.40;;;0.40;;
24729;SDS011;12832;52.392;13.066;2023-07-02T01:47:31;0.50;;;0.50;;
24729;SDS011;12832;52.392;13.066;2023-07-02T01:49:57;0.50;;;0.50;;
24729;SDS011;12832;52.392;13.066;2023-07-02T01:52:24;0.40;;;0.40;;
24729;SDS011;12832;52.392;13.066;2023-07-02T01:54:50;0.50;;;0.50;;
24729;SDS011;12832;52.392;13.066;2023-07-02T01:57:18;0.47;;;0.47;;
24729;SDS011;12832;52.392;13.066;2023-07-02T01:59:44;0.40;;;0.40;;
24729;SDS011;12832;52.392;13.066;2023-07-02T02:02:10;0.40;;;0.40;;
24729;SDS011;12832;52.392;13.066;2023-07-02T02:04:36;0.30;;;0.30;;
24729;SDS011;12832;52.392;13.066;2023-07-02T02:07:03;0.40;;;0.40;;
24729;SDS011;12832;52.392;13.066;2023-07-02T02:09:29;0.45;;;0.45;;
24729;SDS011;12832;52.392;13.066;2023-07-02T02:11:58;0.50;;;0.50;;
24729;SDS011;12832;52.392;13.066;2023-07-02T02:14:25;0.40;;;0.40;;
24729;SDS011;12832;52.392;13.066;2023-07-02T02:16:51;0.30;;;0.30;;
24729;SDS011;12832;52.392;13.066;2023-07-02T02:19:17;0.40;;;0.40;;
24729;SDS011;12832;52.392;13.066;2023-07-02T02:21:43;0.43;;;0.43;;
24729;SDS011;12832;52.392;13.066;2023-07-02T02:24:10;0.40;;;0.40;;
24729;SDS011;12832;52.392;13.066;2023-07-02T02:26:36;0.38;;;0.38;;
24729;SDS011;12832;52.392;13.066;2023-07-02T02:29:02;0.50;;;0.50;;
24729;SDS011;12832;52.392;13.066;2023-07-02T02:31:28;0.60;;;0.60;;
24729;SDS011;12832;52.392;13.066;2023-07-02T02:33:55;0.40;;;0.40;;
24729;SDS011;12832;52.392;13.066;2023-07-02T02:36:21;0.43;;;0.43;;
24729;SDS011;12832;52.392;13.066;2023-07-02T02:38:47;0.40;;;0.40;;
24729;SDS011;12832;52.392;13.066;2023-07-02T02:41:14;0.50;;;0.50;;
24729;SDS011;12832;52.392;13.066;2023-07-02T02:43:43;0.40;;;0.40;;
24729;SDS011;12832;52.392;13.066;2023-07-02T02:46:12;0.32;;;0.32;;
24729;SDS011;12832;52.392;13.066;2023-07-02T02:48:48;0.40;;;0.40;;
24729;SDS011;12832;52.392;13.066;2023-07-02T02:51:15;0.40;;;0.40;;
24729;SDS011;12832;52.392;13.066;2023-07-02T02:53:41;0.40;;;0.40;;
24729;SDS011;12832;52.392;13.066;2023-07-02T02:56:07;0.30;;;0.30;;
24729;SDS011;12832;52.392;13.066;2023-07-02T02:58:34;0.40;;;0.40;;
24729;SDS011;12832;52.392;13.066;2023-07-02T03:01:00;0.43;;;0.43;;
24729;SDS011;12832;52.392;13.066;2023-07-02T03:03:26;0.50;;;0.50;;
24729;SDS011;12832;52.392;13.066;2023-07-02T03:05:52;0.40;;;0.40;;
24729;SDS011;12832;52.392;13.066;2023-07-02T03:08:19;0.30;;;0.30;;
24729;SDS011;12832;52.392;13.066;2023-07-02T03:10:45;0.40;;;0.40;;
24729;SDS011;12832;52.392;13.066;2023-07-02T03:13:11;0.30;;;0.30;;
24729;SDS011;12832;52.392;13.066;2023-07-02T03:15:38;0.40;;;0.30;;
24729;SDS011;12832;52.392;13.066;2023-07-02T03:18:05;0.20;;;0.20;;
24729;SDS011;12832;52.392;13.066;2023-07-02T03:20:32;0.30;;;0.30;;
24729;SDS011;12832;52.392;13.066;2023-07-02T03:22:58;0.30;;;0.30;;
24729;SDS011;12832;52.392;13.066;2023-07-02T03:25:24;0.30;;;0.30;;
24729;SDS011;12832;52.392;13.066;2023-07-02T03:27:50;0.30;;;0.30;;
24729;SDS011;12832;52.392;13.066;2023-07-02T03:30:17;0.40;;;0.40;;
24729;SDS011;12832;52.392;13.066;2023-07-02T03:32:43;0.30;;;0.30;;
24729;SDS011;12832;52.392;13.066;2023-07-02T03:35:09;0.50;;;0.50;;
24729;SDS011;12832;52.392;13.066;2023-07-02T03:37:36;0.38;;;0.38;;
24729;SDS011;12832;52.392;13.066;2023-07-02T03:40:02;0.20;;;0.20;;
24729;SDS011;12832;52.392;13.066;2023-07-02T03:42:30;0.30;;;0.30;;
24729;SDS011;12832;52.392;13.066;2023-07-02T03:44:58;0.30;;;0.30;;
24729;SDS011;12832;52.392;13.066;2023-07-02T03:47:24;0.40;;;0.40;;
24729;SDS011;12832;52.392;13.066;2023-07-02T03:49:50;0.20;;;0.20;;
24729;SDS011;12832;52.392;13.066;2023-07-02T03:52:16;0.38;;;0.38;;
24729;SDS011;12832;52.392;13.066;2023-07-02T03:54:42;0.40;;;0.40;;
24729;SDS011;12832;52.392;13.066;2023-07-02T03:57:09;0.40;;;0.40;;
24729;SDS011;12832;52.392;13.066;2023-07-02T03:59:35;0.47;;;0.47;;
24729;SDS011;12832;52.392;13.066;2023-07-02T04:02:01;0.30;;;0.30;;
24729;SDS011;12832;52.392;13.066;2023-07-02T04:04:27;0.40;;;0.40;;
24729;SDS011;12832;52.392;13.066;2023-07-02T04:06:54;0.20;;;0.20;;
24729;SDS011;12832;52.392;13.066;2023-07-02T04:09:20;0.30;;;0.30;;
24729;SDS011;12832;52.392;13.066;2023-07-02T04:11:46;0.20;;;0.20;;
24729;SDS011;12832;52.392;13.066;2023-07-02T04:14:12;0.30;;;0.30;;
24729;SDS011;12832;52.392;13.066;2023-07-02T04:16:39;0.30;;;0.30;;
24729;SDS011;12832;52.392;13.066;2023-07-02T04:19:05;0.28;;;0.28;;
24729;SDS011;12832;52.392;13.066;2023-07-02T04:21:32;0.30;;;0.30;;
24729;SDS011;12832;52.392;13.066;2023-07-02T04:23:58;0.20;;;0.20;;
24729;SDS011;12832;52.392;13.066;2023-07-02T04:26:24;0.20;;;0.20;;
24729;SDS011;12832;52.392;13.066;2023-07-02T04:29:12;0.30;;;0.30;;
24729;SDS011;12832;52.392;13.066;2023-07-02T04:31:38;0.20;;;0.20;;
24729;SDS011;12832;52.392;13.066;2023-07-02T04:34:04;0.20;;;0.20;;
24729;SDS011;12832;52.392;13.066;2023-07-02T04:36:31;0.22;;;0.22;;
24729;SDS011;12832;52.392;13.066;2023-07-02T04:38:57;0.20;;;0.20;;
24729;SDS011;12832;52.392;13.066;2023-07-02T04:41:24;0.20;;;0.20;;
24729;SDS011;12832;52.392;13.066;2023-07-02T04:43:50;0.30;;;0.30;;
24729;SDS011;12832;52.392;13.066;2023-07-02T04:46:16;0.32;;;0.32;;
24729;SDS011;12832;52.392;13.066;2023-07-02T04:48:43;0.20;;;0.20;;
24729;SDS011;12832;52.392;13.066;2023-07-02T04:51:09;0.20;;;0.20;;
24729;SDS011;12832;52.392;13.066;2023-07-02T04:53:36;0.20;;;0.20;;
24729;SDS011;12832;52.392;13.066;2023-07-02T04:56:03;0.30;;;0.30;;
24729;SDS011;12832;52.392;13.066;2023-07-02T04:58:31;0.40;;;0.40;;
24729;SDS011;12832;52.392;13.066;2023-07-02T05:00:58;0.30;;;0.30;;
24729;SDS011;12832;52.392;13.066;2023-07-02T05:03:24;0.30;;;0.30;;
24729;SDS011;12832;52.392;13.066;2023-07-02T05:05:50;0.20;;;0.20;;
24729;SDS011;12832;52.392;13.066;2023-07-02T05:08:16;0.30;;;0.30;;
24729;SDS011;12832;52.392;13.066;2023-07-02T05:10:42;0.30;;;0.30;;
24729;SDS011;12832;52.392;13.066;2023-07-02T05:13:09;0.30;;;0.30;;
24729;SDS011;12832;52.392;13.066;2023-07-02T05:15:35;0.20;;;0.20;;
24729;SDS011;12832;52.392;13.066;2023-07-02T05:18:01;0.25;;;0.25;;
24729;SDS011;12832;52.392;13.066;2023-07-02T05:20:27;0.25;;;0.20;;
24729;SDS011;12832;52.392;13.066;2023-07-02T05:22:53;0.20;;;0.20;;
24729;SDS011;12832;52.392;13.066;2023-07-02T05:25:20;0.30;;;0.30;;
24729;SDS011;12832;52.392;13.066;2023-07-02T05:27:46;0.30;;;0.30;;
24729;SDS011;12832;52.392;13.066;2023-07-02T05:30:14;0.30;;;0.30;;
24729;SDS011;12832;52.392;13.066;2023-07-02T05:32:40;0.30;;;0.30;;
24729;SDS011;12832;52.392;13.066;2023-07-02T05:35:07;0.20;;;0.20;;
24729;SDS011;12832;52.392;13.066;2023-07-02T05:37:34;0.30;;;0.20;;
24729;SDS011;12832;52.392;13.066;2023-07-02T05:40:00;0.30;;;0.30;;
24729;SDS011;12832;52.392;13.066;2023-07-02T05:42:26;0.32;;;0.30;;
24729;SDS011;12832;52.392;13.066;2023-07-02T05:44:52;0.30;;;0.30;;
24729;SDS011;12832;52.392;13.066;2023-07-02T05:47:18;0.30;;;0.30;;
24729;SDS011;12832;52.392;13.066;2023-07-02T05:49:45;0.30;;;0.30;;
24729;SDS011;12832;52.392;13.066;2023-07-02T05:52:11;0.20;;;0.20;;
24729;SDS011;12832;52.392;13.066;2023-07-02T05:54:40;0.20;;;0.20;;
24729;SDS011;12832;52.392;13.066;2023-07-02T05:57:07;0.30;;;0.30;;
24729;SDS011;12832;52.392;13.066;2023-07-02T05:59:33;0.30;;;0.30;;
24729;SDS011;12832;52.392;13.066;2023-07-02T06:01:59;0.40;;;0.40;;
24729;SDS011;12832;52.392;13.066;2023-07-02T06:04:26;0.20;;;0.20;;
24729;SDS011;12832;52.392;13.066;2023-07-02T06:06:52;0.25;;;0.25;;
24729;SDS011;12832;52.392;13.066;2023-07-02T06:09:18;0.30;;;0.30;;
24729;SDS011;12832;52.392;13.066;2023-07-02T06:11:44;0.20;;;0.20;;
24729;SDS011;12832;52.392;13.066;2023-07-02T06:14:11;0.28;;;0.28;;
24729;SDS011;12832;52.392;13.066;2023-07-02T06:16:37;0.20;;;0.20;;
24729;SDS011;12832;52.392;13.066;2023-07-02T06:19:03;0.30;;;0.30;;
24729;SDS011;12832;52.392;13.066;2023-07-02T06:21:29;0.30;;;0.30;;
24729;SDS011;12832;52.392;13.066;2023-07-02T06:23:56;0.30;;;0.30;;
24729;SDS011;12832;52.392;13.066;2023-07-02T06:26:27;0.20;;;0.20;;
24729;SDS011;12832;52.392;13.066;2023-07-02T06:28:53;0.20;;;0.20;;
24729;SDS011;12832;52.392;13.066;2023-07-02T06:31:19;0.20;;;0.20;;
24729;SDS011;12832;52.392;13.066;2023-07-02T06:33:46;0.20;;;0.20;;
24729;SDS011;12832;52.392;13.066;2023-07-02T06:36:12;0.20;;;0.20;;
24729;SDS011;12832;52.392;13.066;2023-07-02T06:38:43;0.10;;;0.10;;
24729;SDS011;12832;52.392;13.066;2023-07-02T06:41:09;0.30;;;0.30;;
24729;SDS011;12832;52.392;13.066;2023-07-02T06:43:35;0.30;;;0.30;;
24729;SDS011;12832;52.392;13.066;2023-07-02T06:46:02;0.13;;;0.13;;
24729;SDS011;12832;52.392;13.066;2023-07-02T06:48:28;0.20;;;0.20;;
24729;SDS011;12832;52.392;13.066;2023-07-02T06:50:55;0.30;;;0.30;;
24729;SDS011;12832;52.392;13.066;2023-07-02T06:53:21;0.20;;;0.20;;
24729;SDS011;12832;52.392;13.066;2023-07-02T06:55:48;0.28;;;0.28;;
24729;SDS011;12832;52.392;13.066;2023-07-02T06:58:14;0.20;;;0.20;;
24729;SDS011;12832;52.392;13.066;2023-07-02T07:00:40;0.20;;;0.20;;
24729;SDS011;12832;52.392;13.066;2023-07-02T07:03:06;0.30;;;0.30;;
24729;SDS011;12832;52.392;13.066;2023-07-02T07:05:32;0.35;;;0.35;;
24729;SDS011;12832;52.392;13.066;2023-07-02T07:07:59;0.20;;;0.20;;
24729;SDS011;12832;52.392;13.066;2023-07-02T07:10:29;0.40;;;0.40;;
24729;SDS011;12832;52.392;13.066;2023-07-02T07:13:00;0.30;;;0.30;;
24729;SDS011;12832;52.392;13.066;2023-07-02T07:15:29;0.28;;;0.20;;
24729;SDS011;12832;52.392;13.066;2023-07-02T07:18:00;0.32;;;0.32;;
24729;SDS011;12832;52.392;13.066;2023-07-02T07:20:27;0.30;;;0.30;;
24729;SDS011;12832;52.392;13.066;2023-07-02T07:22:53;0.20;;;0.20;;
24729;SDS011;12832;52.392;13.066;2023-07-02T07:25:20;0.20;;;0.20;;
24729;SDS011;12832;52.392;13.066;2023-07-02T07:27:46;0.30;;;0.30;;
24729;SDS011;12832;52.392;13.066;2023-07-02T07:30:12;0.20;;;0.20;;
24729;SDS011;12832;52.392;13.066;2023-07-02T07:32:40;0.20;;;0.20;;
24729;SDS011;12832;52.392;13.066;2023-07-02T07:35:07;0.28;;;0.28;;
24729;SDS011;12832;52.392;13.066;2023-07-02T07:37:33;0.30;;;0.30;;
24729;SDS011;12832;52.392;13.066;2023-07-02T07:39:59;0.17;;;0.17;;
24729;SDS011;12832;52.392;13.066;2023-07-02T07:42:25;0.20;;;0.20;;
24729;SDS011;12832;52.392;13.066;2023-07-02T07:44:52;0.30;;;0.30;;
24729;SDS011;12832;52.392;13.066;2023-07-02T07:47:18;0.20;;;0.20;;
24729;SDS011;12832;52.392;13.066;2023-07-02T07:49:44;0.20;;;0.20;;
24729;SDS011;12832;52.392;13.066;2023-07-02T07:52:10;0.20;;;0.20;;
24729;SDS011;12832;52.392;13.066;2023-07-02T07:54:36;0.20;;;0.20;;
24729;SDS011;12832;52.392;13.066;2023-07-02T07:57:03;0.28;;;0.28;;
24729;SDS011;12832;52.392;13.066;2023-07-02T07:59:30;0.20;;;0.20;;
24729;SDS011;12832;52.392;13.066;2023-07-02T08:01:56;0.30;;;0.30;;
24729;SDS011;12832;52.392;13.066;2023-07-02T08:04:23;0.15;;;0.15;;
24729;SDS011;12832;52.392;13.066;2023-07-02T08:06:49;0.20;;;0.20;;
24729;SDS011;12832;52.392;13.066;2023-07-02T08:09:15;0.20;;;0.20;;
24729;SDS011;12832;52.392;13.066;2023-07-02T08:11:41;0.20;;;0.20;;
24729;SDS011;12832;52.392;13.066;2023-07-02T08:14:07;0.20;;;0.20;;
24729;SDS011;12832;52.392;13.066;2023-07-02T08:16:33;0.20;;;0.20;;
24729;SDS011;12832;52.392;13.066;2023-07-02T08:19:00;0.20;;;0.20;;
24729;SDS011;12832;52.392;13.066;2023-07-02T08:21:27;0.20;;;0.20;;
24729;SDS011;12832;52.392;13.066;2023-07-02T08:23:53;0.20;;;0.20;;
24729;SDS011;12832;52.392;13.066;2023-07-02T08:26:19;0.20;;;0.20;;
24729;SDS011;12832;52.392;13.066;2023-07-02T08:28:45;0.30;;;0.30;;
24729;SDS011;12832;52.392;13.066;2023-07-02T08:31:12;0.20;;;0.20;;
24729;SDS011;12832;52.392;13.066;2023-07-02T08:33:38;0.20;;;0.20;;
24729;SDS011;12832;52.392;13.066;2023-07-02T08:36:04;0.30;;;0.30;;
24729;SDS011;12832;52.392;13.066;2023-07-02T08:38:31;0.10;;;0.10;;
24729;SDS011;12832;52.392;13.066;2023-07-02T08:40:57;0.17;;;0.17;;
24729;SDS011;12832;52.392;13.066;2023-07-02T08:43:23;0.20;;;0.20;;
24729;SDS011;12832;52.392;13.066;2023-07-02T08:45:52;0.30;;;0.28;;
24729;SDS011;12832;52.392;13.066;2023-07-02T08:48:19;0.30;;;0.30;;
24729;SDS011;12832;52.392;13.066;2023-07-02T08:50:49;0.20;;;0.20;;
24729;SDS011;12832;52.392;13.066;2023-07-02T08:53:16;0.20;;;0.20;;
24729;SDS011;12832;52.392;13.066;2023-07-02T08:55:42;0.20;;;0.20;;
24729;SDS011;12832;52.392;13.066;2023-07-02T08:58:09;0.28;;;0.28;;
24729;SDS011;12832;52.392;13.066;2023-07-02T09:00:35;0.20;;;0.20;;
24729;SDS011;12832;52.392;13.066;2023-07-02T09:03:12;0.10;;;0.10;;
24729;SDS011;12832;52.392;13.066;2023-07-02T09:05:50;0.25;;;0.25;;
24729;SDS011;12832;52.392;13.066;2023-07-02T09:08:27;0.28;;;0.28;;
24729;SDS011;12832;52.392;13.066;2023-07-02T09:10:54;0.20;;;0.20;;
24729;SDS011;12832;52.392;13.066;2023-07-02T09:13:30;0.20;;;0.20;;
24729;SDS011;12832;52.392;13.066;2023-07-02T09:15:56;0.20;;;0.20;;
24729;SDS011;12832;52.392;13.066;2023-07-02T09:18:23;0.20;;;0.20;;
24729;SDS011;12832;52.392;13.066;2023-07-02T09:20:51;0.22;;;0.22;;
24729;SDS011;12832;52.392;13.066;2023-07-02T09:23:19;0.20;;;0.20;;
24729;SDS011;12832;52.392;13.066;2023-07-02T09:25:46;0.22;;;0.22;;
24729;SDS011;12832;52.392;13.066;2023-07-02T09:28:16;0.15;;;0.15;;
24729;SDS011;12832;52.392;13.066;2023-07-02T09:30:56;0.30;;;0.30;;
24729;SDS011;12832;52.392;13.066;2023-07-02T09:33:27;0.25;;;0.25;;
24729;SDS011;12832;52.392;13.066;2023-07-02T09:35:54;0.20;;;0.20;;
24729;SDS011;12832;52.392;13.066;2023-07-02T09:38:21;0.30;;;0.30;;
24729;SDS011;12832;52.392;13.066;2023-07-02T09:40:51;0.20;;;0.20;;
24729;SDS011;12832;52.392;13.066;2023-07-02T09:43:19;0.20;;;0.20;;
24729;SDS011;12832;52.392;13.066;2023-07-02T09:45:46;0.20;;;0.20;;
24729;SDS011;12832;52.392;13.066;2023-07-02T09:48:14;0.20;;;0.20;;
24729;SDS011;12832;52.392;13.066;2023-07-02T09:50:45;0.20;;;0.20;;
24729;SDS011;12832;52.392;13.066;2023-07-02T09:53:14;0.22;;;0.22;;
24729;SDS011;12832;52.392;13.066;2023-07-02T09:55:43;0.20;;;0.20;;
24729;SDS011;12832;52.392;13.066;2023-07-02T09:58:10;0.20;;;0.20;;
24729;SDS011;12832;52.392;13.066;2023-07-02T10:00:39;0.20;;;0.20;;
24729;SDS011;12832;52.392;13.066;2023-07-02T10:03:07;0.20;;;0.20;;
24729;SDS011;12832;52.392;13.066;2023-07-02T10:05:34;0.30;;;0.30;;
24729;SDS011;12832;52.392;13.066;2023-07-02T10:08:15;0.28;;;0.28;;
24729;SDS011;12832;52.392;13.066;2023-07-02T10:10:47;0.20;;;0.20;;
24729;SDS011;12832;52.392;13.066;2023-07-02T10:13:14;0.20;;;0.20;;
24729;SDS011;12832;52.392;13.066;2023-07-02T10:15:40;0.20;;;0.20;;
24729;SDS011;12832;52.392;13.066;2023-07-02T10:18:07;0.20;;;0.20;;
24729;SDS011;12832;52.392;13.066;2023-07-02T10:20:34;0.10;;;0.10;;
24729;SDS011;12832;52.392;13.066;2023-07-02T10:23:03;0.20;;;0.20;;
24729;SDS011;12832;52.392;13.066;2023-07-02T10:25:31;0.20;;;0.20;;
24729;SDS011;12832;52.392;13.066;2023-07-02T10:28:18;0.20;;;0.20;;
24729;SDS011;12832;52.392;13.066;2023-07-02T10:30:47;0.20;;;0.20;;
24729;SDS011;12832;52.392;13.066;2023-07-02T10:33:15;0.20;;;0.20;;
24729;SDS011;12832;52.392;13.066;2023-07-02T10:35:46;0.20;;;0.20;;
24729;SDS011;12832;52.392;13.066;2023-07-02T10:38:15;0.20;;;0.20;;
24729;SDS011;12832;52.392;13.066;2023-07-02T10:40:44;0.20;;;0.20;;
24729;SDS011;12832;52.392;13.066;2023-07-02T10:43:11;0.20;;;0.20;;
24729;SDS011;12832;52.392;13.066;2023-07-02T10:45:37;0.20;;;0.20;;
24729;SDS011;12832;52.392;13.066;2023-07-02T10:48:13;0.20;;;0.20;;
24729;SDS011;12832;52.392;13.066;2023-07-02T10:50:39;0.20;;;0.20;;
24729;SDS011;12832;52.392;13.066;2023-07-02T10:53:05;0.20;;;0.20;;
24729;SDS011;12832;52.392;13.066;2023-07-02T10:55:31;0.20;;;0.20;;
24729;SDS011;12832;52.392;13.066;2023-07-02T10:58:05;0.38;;;0.20;;
24729;SDS011;12832;52.392;13.066;2023-07-02T11:00:42;0.38;;;0.38;;
24729;SDS011;12832;52.392;13.066;2023-07-02T11:03:19;0.13;;;0.13;;
24729;SDS011;12832;52.392;13.066;2023-07-02T11:05:46;0.20;;;0.20;;
24729;SDS011;12832;52.392;13.066;2023-07-02T11:08:15;0.20;;;0.20;;
24729;SDS011;12832;52.392;13.066;2023-07-02T11:10:43;0.20;;;0.20;;
24729;SDS011;12832;52.392;13.066;2023-07-02T11:13:16;0.30;;;0.30;;
24729;SDS011;12832;52.392;13.066;2023-07-02T11:15:43;0.20;;;0.20;;
24729;SDS011;12832;52.392;13.066;2023-07-02T11:18:12;0.22;;;0.22;;
24729;SDS011;12832;52.392;13.066;2023-07-02T11:20:43;0.20;;;0.20;;
24729;SDS011;12832;52.392;13.066;2023-07-02T11:23:18;0.10;;;0.10;;
24729;SDS011;12832;52.392;13.066;2023-07-02T11:26:00;0.20;;;0.20;;
24729;SDS011;12832;52.392;13.066;2023-07-02T11:28:28;0.20;;;0.20;;
24729;SDS011;12832;52.392;13.066;2023-07-02T11:30:57;0.20;;;0.20;;
24729;SDS011;12832;52.392;13.066;2023-07-02T11:33:34;0.20;;;0.20;;
24729;SDS011;12832;52.392;13.066;2023-07-02T11:36:05;0.20;;;0.20;;
24729;SDS011;12832;52.392;13.066;2023-07-02T11:38:35;0.20;;;0.20;;
24729;SDS011;12832;52.392;13.066;2023-07-02T11:41:02;0.20;;;0.20;;
24729;SDS011;12832;52.392;13.066;2023-07-02T11:43:29;0.30;;;0.30;;
24729;SDS011;12832;52.392;13.066;2023-07-02T11:45:56;0.20;;;0.20;;
24729;SDS011;12832;52.392;13.066;2023-07-02T11:48:22;0.28;;;0.28;;
24729;SDS011;12832;52.392;13.066;2023-07-02T11:50:48;0.10;;;0.10;;
24729;SDS011;12832;52.392;13.066;2023-07-02T11:53:15;0.30;;;0.30;;
24729;SDS011;12832;52.392;13.066;2023-07-02T11:55:41;0.20;;;0.20;;
24729;SDS011;12832;52.392;13.066;2023-07-02T11:58:07;0.30;;;0.30;;
24729;SDS011;12832;52.392;13.066;2023-07-02T12:00:33;0.30;;;0.30;;
24729;SDS011;12832;52.392;13.066;2023-07-02T12:02:59;0.20;;;0.20;;
24729;SDS011;12832;52.392;13.066;2023-07-02T12:05:26;0.15;;;0.15;;
24729;SDS011;12832;52.392;13.066;2023-07-02T12:07:52;0.20;;;0.20;;
24729;SDS011;12832;52.392;13.066;2023-07-02T12:10:18;0.17;;;0.17;;
24729;SDS011;12832;52.392;13.066;2023-07-02T12:12:44;0.30;;;0.30;;
24729;SDS011;12832;52.392;13.066;2023-07-02T12:15:11;0.20;;;0.20;;
24729;SDS011;12832;52.392;13.066;2023-07-02T12:17:37;0.20;;;0.20;;
24729;SDS011;12832;52.392;13.066;2023-07-02T12:20:03;0.20;;;0.20;;
24729;SDS011;12832;52.392;13.066;2023-07-02T12:22:30;0.20;;;0.20;;
24729;SDS011;12832;52.392;13.066;2023-07-02T12:24:56;0.28;;;0.28;;
24729;SDS011;12832;52.392;13.066;2023-07-02T12:27:23;0.20;;;0.20;;
24729;SDS011;12832;52.392;13.066;2023-07-02T12:29:51;0.13;;;0.13;;
24729;SDS011;12832;52.392;13.066;2023-07-02T12:32:17;0.20;;;0.20;;
24729;SDS011;12832;52.392;13.066;2023-07-02T12:34:43;0.20;;;0.20;;
24729;SDS011;12832;52.392;13.066;2023-07-02T12:37:09;0.30;;;0.30;;
24729;SDS011;12832;52.392;13.066;2023-07-02T12:39:35;0.30;;;0.30;;
24729;SDS011;12832;52.392;13.066;2023-07-02T12:42:02;0.20;;;0.20;;
24729;SDS011;12832;52.392;13.066;2023-07-02T12:44:28;0.20;;;0.20;;
24729;SDS011;12832;52.392;13.066;2023-07-02T12:46:55;0.30;;;0.30;;
24729;SDS011;12832;52.392;13.066;2023-07-02T12:49:21;0.30;;;0.30;;
24729;SDS011;12832;52.392;13.066;2023-07-02T12:51:47;0.22;;;0.22;;
24729;SDS011;12832;52.392;13.066;2023-07-02T12:54:13;0.20;;;0.20;;
24729;SDS011;12832;52.392;13.066;2023-07-02T12:56:40;0.20;;;0.20;;
24729;SDS011;12832;52.392;13.066;2023-07-02T12:59:06;0.20;;;0.20;;
24729;SDS011;12832;52.392;13.066;2023-07-02T13:01:32;0.40;;;0.40;;
24729;SDS011;12832;52.392;13.066;2023-07-02T13:03:58;0.30;;;0.30;;
24729;SDS011;12832;52.392;13.066;2023-07-02T13:06:25;0.22;;;0.22;;
24729;SDS011;12832;52.392;13.066;2023-07-02T13:08:51;0.28;;;0.28;;
24729;SDS011;12832;52.392;13.066;2023-07-02T13:11:18;0.30;;;0.30;;
24729;SDS011;12832;52.392;13.066;2023-07-02T13:13:44;0.20;;;0.20;;
24729;SDS011;12832;52.392;13.066;2023-07-02T13:16:10;0.30;;;0.30;;
24729;SDS011;12832;52.392;13.066;2023-07-02T13:18:37;0.20;;;0.20;;
24729;SDS011;12832;52.392;13.066;2023-07-02T13:21:03;0.20;;;0.20;;
24729;SDS011;12832;52.392;13.066;2023-07-02T13:23:29;0.20;;;0.20;;
24729;SDS011;12832;52.392;13.066;2023-07-02T13:25:55;0.20;;;0.20;;
24729;SDS011;12832;52.392;13.066;2023-07-02T13:28:21;0.30;;;0.30;;
24729;SDS011;12832;52.392;13.066;2023-07-02T13:30:49;0.40;;;0.40;;
24729;SDS011;12832;52.392;13.066;2023-07-02T13:33:15;0.20;;;0.20;;
24729;SDS011;12832;52.392;13.066;2023-07-02T13:35:41;0.20;;;0.20;;
24729;SDS011;12832;52.392;13.066;2023-07-02T13:38:09;0.20;;;0.20;;
24729;SDS011;12832;52.392;13.066;2023-07-02T13:40:36;0.30;;;0.30;;
24729;SDS011;12832;52.392;13.066;2023-07-02T13:43:02;0.30;;;0.30;;
24729;SDS011;12832;52.392;13.066;2023-07-02T13:45:28;0.20;;;0.20;;
24729;SDS011;12832;52.392;13.066;2023-07-02T13:47:54;0.30;;;0.30;;
24729;SDS011;12832;52.392;13.066;2023-07-02T13:50:21;0.20;;;0.20;;
24729;SDS011;12832;52.392;13.066;2023-07-02T13:52:48;0.20;;;0.20;;
24729;SDS011;12832;52.392;13.066;2023-07-02T13:55:15;0.28;;;0.28;;
24729;SDS011;12832;52.392;13.066;2023-07-02T13:57:41;0.20;;;0.20;;
24729;SDS011;12832;52.392;13.066;2023-07-02T14:00:08;0.20;;;0.20;;
24729;SDS011;12832;52.392;13.066;2023-07-02T14:02:34;0.20;;;0.20;;
24729;SDS011;12832;52.392;13.066;2023-07-02T14:05:01;0.20;;;0.20;;
24729;SDS011;12832;52.392;13.066;2023-07-02T14:07:27;0.30;;;0.30;;
24729;SDS011;12832;52.392;13.066;2023-07-02T14:09:54;0.25;;;0.25;;
24729;SDS011;12832;52.392;13.066;2023-07-02T14:12:21;0.20;;;0.20;;
24729;SDS011;12832;52.392;13.066;2023-07-02T14:14:47;0.38;;;0.30;;
24729;SDS011;12832;52.392;13.066;2023-07-02T14:17:13;0.47;;;0.30;;
24729;SDS011;12832;52.392;13.066;2023-07-02T14:19:39;0.20;;;0.20;;
24729;SDS011;12832;52.392;13.066;2023-07-02T14:22:06;0.30;;;0.30;;
24729;SDS011;12832;52.392;13.066;2023-07-02T14:24:33;0.20;;;0.20;;
24729;SDS011;12832;52.392;13.066;2023-07-02T14:27:00;0.13;;;0.13;;
24729;SDS011;12832;52.392;13.066;2023-07-02T14:29:26;0.25;;;0.25;;
24729;SDS011;12832;52.392;13.066;2023-07-02T14:31:53;0.20;;;0.20;;
24729;SDS011;12832;52.392;13.066;2023-07-02T14:34:20;0.28;;;0.28;;